Time;durP1;ratioP1;P1;durP2;ratioP2;P2;SDS_P1;SDS_P2;PMS_P1;PMS_P2;Temp;Humidity;BMP_temperature;BMP_pressure;BME280_temperature;BME280_humidity;BME280_pressure;Samples;Min_cycle;Max_cycle;Signal;HPM_P1;HPM_P2
2021/08/30 00:02:06;;;;;;;14.75;7.53;;;;;;;20.46;62.71;101925.72;4834132;29;122813;-75
2021/08/30 00:04:34;;;;;;;11.35;6.68;;;;;;;20.45;62.59;101929.38;4851844;29;118758;-75
2021/08/30 00:07:01;;;;;;;12.52;7.70;;;;;;;20.45;62.67;101929.38;4853853;29;119225;-75
2021/08/30 00:09:28;;;;;;;12.65;7.38;;;;;;;20.43;62.55;101924.94;4829798;29;123075;-76
2021/08/30 00:11:55;;;;;;;12.60;7.55;;;;;;;20.42;62.44;101925.91;4856961;29;124229;-75
2021/08/30 00:14:22;;;;;;;11.15;7.20;;;;;;;20.41;62.66;101929.56;4856881;29;120251;-75
2021/08/30 00:16:49;;;;;;;12.40;6.72;;;;;;;20.40;62.58;101933.25;4862923;28;120126;-75
2021/08/30 00:19:17;;;;;;;10.98;6.65;;;;;;;20.39;62.60;101936.88;4855110;29;124952;-75
2021/08/30 00:21:44;;;;;;;13.25;6.88;;;;;;;20.39;62.58;101936.03;4852472;29;122747;-75
2021/08/30 00:24:11;;;;;;;13.32;6.95;;;;;;;20.38;62.67;101929.81;4840983;29;119703;-75
2021/08/30 00:26:38;;;;;;;12.90;7.05;;;;;;;20.39;62.85;101936.03;4832638;29;117639;-75
2021/08/30 00:29:05;;;;;;;11.73;6.72;;;;;;;20.40;62.80;101941.31;4834348;29;122139;-75
2021/08/30 00:31:32;;;;;;;11.02;6.43;;;;;;;20.39;62.76;101931.50;4855453;28;122251;-75
2021/08/30 00:33:59;;;;;;;15.38;7.13;;;;;;;20.39;62.65;101936.03;4840184;29;117584;-75
2021/08/30 00:36:27;;;;;;;11.60;6.70;;;;;;;20.37;62.73;101925.38;4856552;29;119387;-75
2021/08/30 00:38:54;;;;;;;12.68;6.80;;;;;;;20.37;62.64;101928.06;4856127;29;124305;-75
2021/08/30 00:41:23;;;;;;;13.30;6.45;;;;;;;20.37;62.66;101922.69;4840734;29;124238;-75
2021/08/30 00:43:50;;;;;;;9.70;6.57;;;;;;;20.34;62.65;101922.91;4857549;29;119778;-75
2021/08/30 00:46:17;;;;;;;10.02;6.70;;;;;;;20.31;62.60;101928.50;4850710;29;118252;-75
2021/08/30 00:48:46;;;;;;;11.90;6.40;;;;;;;20.29;62.66;101930.44;4857119;29;124212;-75
2021/08/30 00:51:15;;;;;;;11.52;6.82;;;;;;;20.27;62.84;101936.88;4859078;29;124385;-75
2021/08/30 00:53:49;;;;;;;11.20;6.45;;;;;;;20.22;62.75;101934.50;4833660;29;118491;-75
2021/08/30 00:56:17;;;;;;;9.90;6.22;;;;;;;20.20;62.77;101925.69;4860861;29;119120;-75
2021/08/30 00:58:45;;;;;;;11.38;6.45;;;;;;;20.18;62.91;101922.25;4829599;29;122864;-75
2021/08/30 01:01:12;;;;;;;13.25;6.53;;;;;;;20.16;62.72;101929.56;4861174;29;124003;-75
2021/08/30 01:03:41;;;;;;;13.50;6.47;;;;;;;20.13;62.74;101919.00;4861019;28;120028;-76
2021/08/30 01:06:18;;;;;;;13.20;6.53;;;;;;;20.09;62.74;101928.25;4833331;29;118001;-75
2021/08/30 01:09:01;;;;;;;10.20;5.88;;;;;;;20.06;62.76;101933.81;4843959;29;124158;-75
2021/08/30 01:11:32;;;;;;;11.15;6.45;;;;;;;20.03;62.96;101933.06;4860836;29;124621;-75
2021/08/30 01:14:02;;;;;;;11.55;6.40;;;;;;;20.01;62.85;101937.69;4854417;29;120011;-75
2021/08/30 01:16:32;;;;;;;11.10;6.60;;;;;;;20.00;63.00;101941.34;4860508;29;119167;-75
2021/08/30 01:19:00;;;;;;;12.90;7.10;;;;;;;19.99;63.07;101933.38;4841192;29;123404;-75
2021/08/30 01:21:38;;;;;;;9.90;6.28;;;;;;;19.97;63.04;101936.19;4859984;29;123519;-75
2021/08/30 01:24:10;;;;;;;11.45;6.18;;;;;;;19.97;63.16;101940.69;4840540;29;118359;-75
2021/08/30 01:26:52;;;;;;;16.05;7.35;;;;;;;19.95;63.00;101938.09;4856395;29;118894;-75
2021/08/30 01:29:42;;;;;;;11.75;6.35;;;;;;;19.95;63.11;101943.50;4855682;29;123965;-75
2021/08/30 01:32:32;;;;;;;10.65;6.47;;;;;;;19.92;63.26;101943.69;4859114;29;123721;-75
2021/08/30 01:35:09;;;;;;;9.63;6.32;;;;;;;19.91;63.12;101947.34;4832788;29;117168;-75
2021/08/30 01:37:39;;;;;;;10.45;5.57;;;;;;;19.89;63.27;101943.03;4856710;28;118885;-75
2021/08/30 01:40:09;;;;;;;11.02;6.13;;;;;;;19.88;63.42;101936.78;4842226;29;124178;-75
2021/08/30 01:42:39;;;;;;;11.45;6.20;;;;;;;19.88;63.40;101942.16;4839991;29;123086;-75
2021/08/30 01:45:10;;;;;;;11.05;6.43;;;;;;;19.90;63.31;101934.00;4857522;29;120235;-75
2021/08/30 01:47:39;;;;;;;12.65;6.80;;;;;;;19.92;63.46;101943.69;4856624;29;119145;-75
2021/08/30 01:50:07;;;;;;;10.70;6.35;;;;;;;19.92;63.46;101938.31;4863892;23;124439;-70
2021/08/30 01:52:37;;;;;;;11.52;6.50;;;;;;;19.92;63.31;101932.94;4854848;28;123826;-70
2021/08/30 01:55:58;;;;;;;9.82;6.35;;;;;;;19.92;63.45;101938.31;4851734;28;119957;-72
2021/08/30 02:03:19;;;;;;;11.55;6.60;;;;;;;19.88;63.42;101936.78;4852879;28;123925;-72
2021/08/30 02:05:50;;;;;;;12.18;6.95;;;;;;;19.87;63.46;101943.13;4848219;28;119552;-72
2021/08/30 02:08:19;;;;;;;13.23;6.85;;;;;;;19.85;63.17;101947.75;4831749;29;117704;-72
2021/08/30 02:10:46;;;;;;;10.68;6.57;;;;;;;19.84;63.53;101946.03;4853862;28;124122;-72
2021/08/30 02:13:15;;;;;;;11.57;6.68;;;;;;;19.84;63.46;101940.66;4854857;28;123745;-72
2021/08/30 02:15:44;;;;;;;11.48;6.57;;;;;;;19.85;63.56;101947.75;4854913;28;119500;-72
2021/08/30 02:18:17;;;;;;;12.80;6.90;;;;;;;19.84;63.44;101946.03;4837055;28;119538;-72
2021/08/30 02:21:01;;;;;;;11.68;6.47;;;;;;;19.84;63.52;101941.50;4854041;28;124319;-72
2021/08/30 02:23:34;;;;;;;9.95;6.25;;;;;;;19.83;63.38;101939.81;4853093;28;123711;-72
2021/08/30 02:26:10;;;;;;;11.48;6.53;;;;;;;19.84;63.53;101943.34;4854305;28;119629;-72
2021/08/30 02:28:41;;;;;;;12.30;7.88;;;;;;;19.86;63.62;101943.25;4836514;29;118352;-72
2021/08/30 02:31:10;;;;;;;11.05;6.60;;;;;;;19.85;63.41;101936.97;4843731;28;124482;-72
2021/08/30 02:33:38;;;;;;;12.77;6.80;;;;;;;19.86;63.74;101944.09;4819006;29;123902;-72
2021/08/30 02:36:08;;;;;;;12.05;7.03;;;;;;;19.86;63.42;101944.09;4846357;28;96930;-71
2021/08/30 02:38:36;;;;;;;12.70;7.55;;;;;;;19.86;63.45;101944.09;4854073;28;118831;-72
2021/08/30 02:41:05;;;;;;;12.13;7.05;;;;;;;19.83;63.64;101934.44;4853875;28;123849;-72
2021/08/30 02:43:33;;;;;;;11.82;6.72;;;;;;;19.85;63.66;101936.97;4836249;28;123129;-72
2021/08/30 02:46:01;;;;;;;13.57;6.78;;;;;;;19.82;63.53;101931.84;4853789;28;120612;-72
2021/08/30 02:48:30;;;;;;;13.43;7.18;;;;;;;19.81;63.76;101930.94;4836296;28;118792;-69
2021/08/30 02:50:59;;;;;;;12.35;7.55;;;;;;;19.80;63.79;101933.75;4841086;28;123400;-70
2021/08/30 02:53:26;;;;;;;13.10;7.38;;;;;;;19.78;63.88;101936.56;4853141;28;123786;-70
2021/08/30 02:55:54;;;;;;;12.30;7.03;;;;;;;19.80;63.71;101933.75;4853345;28;120369;-70
2021/08/30 02:58:23;;;;;;;11.40;6.75;;;;;;;19.78;63.74;101924.94;4853137;28;119324;-70
2021/08/30 03:00:50;;;;;;;12.18;7.00;;;;;;;19.77;63.89;101923.19;4853212;28;123924;-70
2021/08/30 03:03:18;;;;;;;12.25;6.82;;;;;;;19.78;63.84;101922.25;4854347;28;123577;-70
2021/08/30 03:05:47;;;;;;;11.52;7.03;;;;;;;19.79;64.00;101921.28;4852253;28;119871;-70
2021/08/30 03:08:15;;;;;;;13.43;6.95;;;;;;;19.78;63.77;101916.88;4842805;28;118628;-70
2021/08/30 03:10:46;;;;;;;13.23;7.25;;;;;;;19.78;63.90;101908.81;4852605;28;124013;-70
2021/08/30 03:13:14;;;;;;;11.43;7.32;;;;;;;19.79;64.15;101915.91;4836581;29;123530;-70
2021/08/30 03:15:45;;;;;;;11.35;6.80;;;;;;;19.80;63.99;101917.63;4853653;28;119775;-70
2021/08/30 03:18:15;;;;;;;11.88;7.65;;;;;;;19.81;63.96;101911.28;4853167;28;118779;-70
2021/08/30 03:20:44;;;;;;;12.07;7.40;;;;;;;19.81;63.92;101913.97;4834744;29;122931;-70
2021/08/30 03:23:12;;;;;;;13.55;7.75;;;;;;;19.80;63.97;101923.88;4853136;28;124548;-70
2021/08/30 03:25:40;;;;;;;12.48;7.88;;;;;;;19.80;64.01;101923.00;4836989;29;118316;-71
2021/08/30 03:28:09;;;;;;;12.27;7.22;;;;;;;19.79;63.87;101921.28;4853234;28;119531;-70
2021/08/30 03:30:37;;;;;;;12.40;6.88;;;;;;;19.77;63.89;101923.19;4836651;29;123308;-71
2021/08/30 03:33:06;;;;;;;14.50;7.47;;;;;;;19.74;63.92;101926.97;4852056;28;124010;-70
2021/08/30 03:35:34;;;;;;;11.50;7.05;;;;;;;19.74;64.15;101918.03;4852477;28;120100;-71
2021/08/30 03:38:02;;;;;;;13.55;7.53;;;;;;;19.73;63.97;101921.69;4852484;28;120663;-70
2021/08/30 03:40:31;;;;;;;12.10;7.05;;;;;;;19.73;64.16;101927.06;4852959;28;123892;-70
2021/08/30 03:43:00;;;;;;;12.63;7.75;;;;;;;19.73;64.09;101916.31;4853130;28;124536;-70
2021/08/30 03:45:29;;;;;;;12.15;7.00;;;;;;;19.73;63.97;101921.69;4853108;28;121892;-71
2021/08/30 03:47:57;;;;;;;10.52;7.18;;;;;;;19.74;64.00;101915.34;4852380;28;118955;-71
2021/08/30 03:50:24;;;;;;;14.70;7.60;;;;;;;19.76;64.03;101921.47;4851771;28;123879;-70
2021/08/30 03:52:52;;;;;;;13.38;7.45;;;;;;;19.76;63.99;101926.84;4853380;28;124788;-71
2021/08/30 03:55:20;;;;;;;13.40;7.22;;;;;;;19.76;64.06;101919.66;4851734;28;119187;-70
2021/08/30 03:57:52;;;;;;;11.23;6.95;;;;;;;19.79;64.05;101921.28;4833309;29;118315;-70
2021/08/30 04:00:19;;;;;;;12.68;7.35;;;;;;;19.78;63.96;101919.56;4835351;28;124585;-70
2021/08/30 04:02:49;;;;;;;13.45;7.65;;;;;;;19.79;63.96;101921.28;4835866;29;123217;-70
2021/08/30 04:05:19;;;;;;;13.48;7.90;;;;;;;19.79;64.15;101921.28;4853033;28;119279;-70
2021/08/30 04:07:46;;;;;;;12.52;7.18;;;;;;;19.81;64.08;101924.72;4847381;28;119105;-70
2021/08/30 04:10:14;;;;;;;13.13;7.22;;;;;;;19.81;64.17;101919.34;4835637;29;124206;-70
2021/08/30 04:12:41;;;;;;;11.48;7.43;;;;;;;19.82;63.91;101926.47;4835636;28;122886;-72
2021/08/30 04:15:09;;;;;;;13.38;7.60;;;;;;;19.82;64.18;101918.38;4830259;29;119296;-70
2021/08/30 04:17:37;;;;;;;15.48;7.30;;;;;;;19.83;63.93;101925.47;4836002;28;117956;-71
2021/08/30 04:20:04;;;;;;;12.10;7.65;;;;;;;19.84;64.04;101924.53;4835134;29;123186;-71
2021/08/30 04:22:35;;;;;;;13.38;7.50;;;;;;;19.83;64.04;101922.78;4842640;28;124680;-71
2021/08/30 04:25:03;;;;;;;11.93;7.50;;;;;;;19.84;63.85;101927.22;4833412;29;119933;-71
2021/08/30 04:27:31;;;;;;;13.57;8.00;;;;;;;19.84;63.86;101932.59;4841731;28;119602;-71
2021/08/30 04:29:58;;;;;;;14.00;7.57;;;;;;;19.84;64.07;101930.75;4826220;29;122878;-71
2021/08/30 04:32:25;;;;;;;13.52;7.57;;;;;;;19.86;63.82;101933.34;4841497;28;123771;-70
2021/08/30 04:34:52;;;;;;;13.27;7.93;;;;;;;19.86;64.05;101930.66;4827666;28;119588;-71
2021/08/30 04:37:21;;;;;;;12.27;7.10;;;;;;;19.86;64.03;101933.34;4841566;28;119049;-71
2021/08/30 04:39:48;;;;;;;13.20;7.95;;;;;;;19.88;64.03;101931.41;4827255;29;123894;-71
2021/08/30 04:42:15;;;;;;;14.40;7.85;;;;;;;19.88;63.96;101926.03;4836662;29;123661;-69
2021/08/30 04:44:43;;;;;;;12.77;7.95;;;;;;;19.89;64.08;101933.16;4839931;28;119268;-69
2021/08/30 04:47:10;;;;;;;12.82;7.75;;;;;;;19.92;64.06;101932.06;4851030;28;118507;-69
2021/08/30 04:49:40;;;;;;;15.20;8.48;;;;;;;19.90;63.98;101934.84;4837871;29;124596;-72
2021/08/30 04:52:07;;;;;;;17.25;8.85;;;;;;;19.89;63.93;101927.78;4837944;29;125101;-69
2021/08/30 04:54:34;;;;;;;15.77;8.07;;;;;;;19.92;63.94;101926.69;4855156;28;119397;-72
2021/08/30 04:57:01;;;;;;;17.30;8.63;;;;;;;19.93;63.89;101931.97;4855038;28;118051;-72
2021/08/30 04:59:29;;;;;;;14.57;8.13;;;;;;;19.93;64.02;101929.28;4839733;29;123617;-72
2021/08/30 05:01:56;;;;;;;17.35;8.70;;;;;;;19.95;64.02;101927.34;4854045;28;124614;-73
2021/08/30 05:04:23;;;;;;;15.93;8.90;;;;;;;19.95;64.07;101932.72;4854616;28;119146;-73
2021/08/30 05:06:50;;;;;;;13.88;8.50;;;;;;;19.95;64.04;101935.41;4854661;28;119115;-73
2021/08/30 05:09:17;;;;;;;15.02;8.88;;;;;;;19.96;64.13;101934.44;4833838;28;124140;-72
2021/08/30 05:11:44;;;;;;;17.73;9.50;;;;;;;19.98;64.15;101931.66;4833480;28;123408;-73
2021/08/30 05:14:11;;;;;;;16.20;8.07;;;;;;;19.98;64.24;101945.94;4842412;28;120217;-73
2021/08/30 05:16:38;;;;;;;17.02;9.43;;;;;;;19.99;64.08;101945.00;4851319;28;119742;-73
2021/08/30 05:19:06;;;;;;;16.00;8.70;;;;;;;20.01;64.06;101945.75;4832527;28;123001;-73
2021/08/30 05:21:33;;;;;;;16.25;8.70;;;;;;;20.01;64.06;101943.06;4848093;28;124511;-73
2021/08/30 05:24:01;;;;;;;18.20;9.32;;;;;;;20.02;64.16;101949.28;4838186;28;119014;-73
2021/08/30 05:26:28;;;;;;;17.13;9.80;;;;;;;20.02;64.16;101947.50;4850193;28;118790;-73
2021/08/30 05:28:55;;;;;;;16.52;9.40;;;;;;;20.06;64.07;101949.94;4836190;29;123311;-73
2021/08/30 05:31:22;;;;;;;20.17;9.57;;;;;;;20.08;64.20;101956.09;4851913;28;123655;-73
2021/08/30 05:33:49;;;;;;;15.88;9.30;;;;;;;20.09;64.25;101955.13;4832249;29;119248;-73
2021/08/30 05:36:16;;;;;;;15.65;9.57;;;;;;;20.10;64.17;101956.84;4837130;28;118864;-73
2021/08/30 05:38:44;;;;;;;17.70;9.65;;;;;;;20.10;64.02;101951.47;4843006;28;123635;-73
2021/08/30 05:41:11;;;;;;;18.48;9.35;;;;;;;20.12;64.10;101952.25;4838082;29;123875;-73
2021/08/30 05:43:38;;;;;;;20.00;9.77;;;;;;;20.13;64.13;101945.88;4836059;28;120254;-73
2021/08/30 05:46:05;;;;;;;18.13;9.75;;;;;;;20.15;64.27;101960.09;4839773;28;118967;-73
2021/08/30 05:48:33;;;;;;;15.88;9.23;;;;;;;20.16;64.14;101956.44;4849967;28;123038;-73
2021/08/30 05:51:00;;;;;;;18.70;9.15;;;;;;;20.17;64.32;101964.44;4844842;28;124097;-73
2021/08/30 05:53:27;;;;;;;19.60;10.13;;;;;;;20.19;64.28;101956.22;4840555;28;119261;-73
2021/08/30 05:55:54;;;;;;;17.75;9.73;;;;;;;20.21;64.40;101970.44;4855643;28;118286;-73
2021/08/30 05:58:22;;;;;;;16.92;9.57;;;;;;;20.25;64.43;101961.22;4838094;29;124141;-73
2021/08/30 06:00:49;;;;;;;16.52;9.77;;;;;;;20.28;64.27;101966.38;4844205;28;124033;-73
2021/08/30 06:03:16;;;;;;;20.63;9.90;;;;;;;20.30;64.17;101969.81;4854466;28;120635;-73
2021/08/30 06:05:43;;;;;;;20.05;9.18;;;;;;;20.31;64.47;101966.16;4854919;28;120070;-73
2021/08/30 06:08:11;;;;;;;17.17;9.35;;;;;;;20.34;64.15;101965.97;4848958;28;123851;-73
2021/08/30 06:10:38;;;;;;;17.67;9.85;;;;;;;20.35;64.25;101962.28;4851954;28;124260;-73
2021/08/30 06:13:05;;;;;;;16.92;9.80;;;;;;;20.36;64.27;101964.03;4854255;28;119125;-73
2021/08/30 06:15:32;;;;;;;19.23;9.45;;;;;;;20.38;64.14;101972.84;4854597;28;119063;-73
2021/08/30 06:17:59;;;;;;;16.85;9.32;;;;;;;20.40;64.21;101975.44;4841055;28;124776;-73
2021/08/30 06:20:26;;;;;;;18.00;9.55;;;;;;;20.43;64.18;101969.84;4837052;29;123025;-73
2021/08/30 06:22:53;;;;;;;21.77;10.45;;;;;;;20.47;64.14;101978.56;4850581;28;119257;-73
2021/08/30 06:25:20;;;;;;;16.75;9.65;;;;;;;20.49;64.13;101979.31;4844672;29;119378;-73
2021/08/30 06:27:57;;;;;;;18.98;9.80;;;;;;;20.50;64.05;101975.66;4829921;28;123410;-73
2021/08/30 06:30:24;;;;;;;17.88;9.82;;;;;;;20.51;64.00;101978.25;4861705;28;124517;-72
2021/08/30 06:32:52;;;;;;;17.55;9.90;;;;;;;20.51;64.16;101977.38;4854184;28;119206;-72
2021/08/30 06:35:19;;;;;;;17.33;10.27;;;;;;;20.53;64.13;101975.44;4867259;28;119145;-73
2021/08/30 06:37:46;;;;;;;20.42;10.27;;;;;;;20.55;64.26;101974.38;4851128;28;124411;-73
2021/08/30 06:40:13;;;;;;;22.05;10.27;;;;;;;20.59;64.23;101980.41;4841438;29;122604;-73
2021/08/30 06:42:41;;;;;;;21.58;10.40;;;;;;;20.63;64.40;101981.97;4849996;28;119437;-73
2021/08/30 06:45:09;;;;;;;16.58;10.13;;;;;;;20.67;64.22;101978.06;4835283;28;120227;-73
2021/08/30 06:47:36;;;;;;;17.83;10.73;;;;;;;20.71;64.15;101984.97;4842727;29;124503;-72
2021/08/30 06:50:04;;;;;;;17.88;10.27;;;;;;;20.75;63.99;101975.69;4831048;29;124367;-73
2021/08/30 06:52:31;;;;;;;18.85;9.95;;;;;;;20.80;64.02;101984.31;4853118;28;120207;-73
2021/08/30 06:54:58;;;;;;;22.27;10.65;;;;;;;20.87;64.21;101983.88;4832729;28;119244;-73
2021/08/30 06:57:25;;;;;;;18.80;10.15;;;;;;;20.92;64.12;101984.44;4852840;28;124207;-72
2021/08/30 06:59:52;;;;;;;20.00;9.75;;;;;;;20.96;64.14;101985.94;4835661;29;124025;-72
2021/08/30 07:02:22;;;;;;;20.50;10.25;;;;;;;21.01;63.96;101986.47;4846254;28;119459;-72
2021/08/30 07:04:49;;;;;;;18.15;10.40;;;;;;;21.06;63.92;101984.31;4853523;28;119282;-72
2021/08/30 07:07:16;;;;;;;19.48;9.90;;;;;;;21.11;64.03;101981.28;4848568;28;123934;-72
2021/08/30 07:09:43;;;;;;;19.83;10.65;;;;;;;21.17;63.90;101979.03;4831743;28;123113;-72
2021/08/30 07:12:10;;;;;;;18.65;9.98;;;;;;;21.20;63.81;101973.41;4832322;29;118185;-73
2021/08/30 07:14:37;;;;;;;18.92;9.75;;;;;;;21.26;63.78;101969.41;4842967;28;118837;-73
2021/08/30 07:17:04;;;;;;;19.50;10.10;;;;;;;21.32;63.65;101968.09;4848992;28;123939;-72
2021/08/30 07:19:31;;;;;;;19.52;10.70;;;;;;;21.39;63.82;101958.59;4833925;28;123907;-73
2021/08/30 07:21:58;;;;;;;16.52;9.60;;;;;;;21.45;63.56;101968.94;4834726;28;119138;-73
2021/08/30 07:24:25;;;;;;;19.85;9.90;;;;;;;21.50;63.36;101971.31;4833081;28;119699;-73
2021/08/30 07:26:52;;;;;;;17.58;9.70;;;;;;;21.53;63.29;101963.00;4832714;29;123058;-72
2021/08/30 07:29:20;;;;;;;19.73;9.70;;;;;;;21.54;63.21;101973.66;4842620;28;123995;-73
2021/08/30 07:31:47;;;;;;;18.88;9.73;;;;;;;21.58;63.20;101969.75;4837279;28;119300;-73
2021/08/30 07:34:14;;;;;;;21.85;9.52;;;;;;;21.63;63.12;101976.69;4818183;29;119181;-73
2021/08/30 07:36:41;;;;;;;17.45;9.70;;;;;;;21.68;62.93;101969.09;4833627;28;123362;-73
2021/08/30 07:39:08;;;;;;;14.75;9.38;;;;;;;21.74;62.95;101968.66;4832386;28;123790;-73
2021/08/30 07:41:35;;;;;;;17.20;9.88;;;;;;;21.80;62.82;101975.44;4819711;28;119045;-73
2021/08/30 07:44:03;;;;;;;14.65;9.02;;;;;;;21.84;62.77;101968.81;4833031;29;119230;-73
2021/08/30 07:46:30;;;;;;;15.73;9.52;;;;;;;21.88;62.45;101970.31;4835760;28;123670;-73
2021/08/30 07:48:57;;;;;;;16.35;9.82;;;;;;;21.91;62.36;101976.34;4839904;28;123689;-73
2021/08/30 07:51:24;;;;;;;18.73;9.85;;;;;;;21.95;62.56;101972.41;4822284;23;118657;-74
2021/08/30 07:53:51;;;;;;;15.90;9.85;;;;;;;22.02;62.27;101977.34;4847406;28;117215;-73
2021/08/30 07:56:18;;;;;;;18.25;9.75;;;;;;;22.09;62.37;101982.16;4844423;28;123301;-73
2021/08/30 07:58:45;;;;;;;19.23;9.63;;;;;;;22.18;62.45;101977.91;4844089;28;123885;-74
2021/08/30 08:01:12;;;;;;;14.07;8.52;;;;;;;22.26;62.08;101986.31;4838558;28;119540;-74
2021/08/30 08:03:40;;;;;;;19.70;9.88;;;;;;;22.29;61.77;101991.47;4844166;28;118761;-74
2021/08/30 08:06:07;;;;;;;17.10;8.95;;;;;;;22.31;61.59;101994.91;4835686;29;123768;-74
2021/08/30 08:08:34;;;;;;;16.30;8.75;;;;;;;22.32;61.21;101996.66;4828175;29;123712;-74
2021/08/30 08:11:01;;;;;;;17.35;9.48;;;;;;;22.32;61.43;101993.06;4835675;28;119085;-74
2021/08/30 08:13:29;;;;;;;16.13;8.80;;;;;;;22.33;61.48;101992.97;4827556;29;118810;-74
2021/08/30 08:16:00;;;;;;;17.60;9.38;;;;;;;22.35;61.04;101985.59;4838161;28;125186;-74
2021/08/30 08:18:28;;;;;;;16.13;8.50;;;;;;;22.37;61.07;101998.13;4842579;28;122879;-74
2021/08/30 08:20:55;;;;;;;15.07;8.48;;;;;;;22.34;61.00;101994.69;4831295;28;118622;-73
2021/08/30 08:23:22;;;;;;;14.20;9.07;;;;;;;22.34;60.90;101986.59;4833374;29;119737;-73
2021/08/30 08:25:49;;;;;;;15.98;8.63;;;;;;;22.34;60.86;101983.91;4840516;28;124953;-73
2021/08/30 08:28:16;;;;;;;16.23;8.90;;;;;;;22.32;60.54;101985.84;4839173;28;124783;-73
2021/08/30 08:30:43;;;;;;;19.60;9.45;;;;;;;22.34;60.89;101989.28;4837676;28;120916;-73
2021/08/30 08:33:10;;;;;;;13.10;8.27;;;;;;;22.44;60.91;101983.19;4819120;28;118895;-73
2021/08/30 08:35:40;;;;;;;18.73;9.48;;;;;;;22.55;61.13;101985.91;4837477;28;124122;-73
2021/08/30 08:38:09;;;;;;;14.40;8.38;;;;;;;22.64;61.06;102001.41;4835140;28;124179;-74
2021/08/30 08:40:36;;;;;;;14.13;7.60;;;;;;;22.75;60.72;101987.03;4853663;28;119323;-74
2021/08/30 08:43:17;;;;;;;14.52;8.13;;;;;;;22.85;60.34;101989.88;4813619;29;118052;-73
2021/08/30 08:45:46;;;;;;;13.68;8.02;;;;;;;22.95;60.40;101982.78;4837035;28;123109;-74
2021/08/30 08:48:14;;;;;;;15.63;8.70;;;;;;;23.06;60.34;101985.50;4846291;28;124689;-75
2021/08/30 08:50:44;;;;;;;13.15;8.27;;;;;;;23.15;60.18;101983.03;4836121;29;118729;-74
2021/08/30 08:53:11;;;;;;;16.23;8.80;;;;;;;23.19;59.72;101989.91;4827547;29;118959;-74
2021/08/30 08:55:38;;;;;;;16.48;8.45;;;;;;;23.26;59.80;101985.75;4846811;28;124364;-74
2021/08/30 08:58:17;;;;;;;13.75;7.90;;;;;;;23.35;60.08;101998.50;4847433;28;123861;-74
2021/08/30 09:00:58;;;;;;;16.25;8.25;;;;;;;23.46;59.65;101993.09;4849870;28;119440;-73
2021/08/30 09:03:25;;;;;;;18.60;8.45;;;;;;;23.56;59.59;101997.75;4835009;28;117975;-75
2021/08/30 09:06:03;;;;;;;14.68;8.38;;;;;;;23.62;59.43;101997.25;4842549;29;124286;-74
2021/08/30 09:08:36;;;;;;;16.60;8.48;;;;;;;23.66;58.70;101998.72;4846117;28;124442;-73
2021/08/30 09:11:14;;;;;;;15.35;8.40;;;;;;;23.64;58.50;102000.69;4833041;28;118089;-73
2021/08/30 09:13:52;;;;;;;13.60;7.65;;;;;;;23.62;58.21;101999.94;4830535;29;118978;-75
2021/08/30 09:16:21;;;;;;;13.32;8.57;;;;;;;23.61;58.26;102006.34;4842173;28;124625;-76
2021/08/30 09:18:49;;;;;;;15.80;8.80;;;;;;;23.58;58.33;102001.19;4856531;29;123928;-73
2021/08/30 09:21:18;;;;;;;14.07;9.43;;;;;;;23.56;58.50;101997.75;4822211;28;121158;-73
2021/08/30 09:23:45;;;;;;;13.77;8.85;;;;;;;23.58;58.60;102001.19;4841498;28;119695;-73
2021/08/30 09:26:17;;;;;;;14.57;8.75;;;;;;;23.57;58.61;101989.53;4851476;28;125252;-75
2021/08/30 09:28:54;;;;;;;13.02;8.70;;;;;;;23.57;58.56;101999.47;4839065;29;124280;-74
2021/08/30 09:31:22;;;;;;;11.65;7.68;;;;;;;23.57;58.47;101988.66;4825472;28;119267;-74
2021/08/30 09:33:52;;;;;;;11.88;7.70;;;;;;;23.57;58.39;102004.91;4857424;28;119321;-74
2021/08/30 09:36:20;;;;;;;14.38;8.80;;;;;;;23.56;58.37;101992.34;4855638;28;124014;-73
2021/08/30 09:38:54;;;;;;;13.88;8.90;;;;;;;23.56;58.17;101992.34;4849497;28;123608;-75
2021/08/30 09:41:21;;;;;;;13.83;8.60;;;;;;;23.57;58.21;101989.53;4849661;28;119320;-73
2021/08/30 09:43:59;;;;;;;16.10;9.43;;;;;;;23.62;58.32;101991.81;4834396;29;118511;-74
2021/08/30 09:46:30;;;;;;;14.13;8.73;;;;;;;23.66;58.40;101990.63;4837837;28;123810;-75
2021/08/30 09:49:04;;;;;;;13.32;8.00;;;;;;;23.67;57.98;101995.88;4822623;29;123386;-75
2021/08/30 09:51:37;;;;;;;13.48;8.23;;;;;;;23.65;57.76;101997.00;4836794;28;120357;-74
2021/08/30 09:54:05;;;;;;;13.52;8.05;;;;;;;23.64;57.86;101997.97;4842502;28;120263;-75
2021/08/30 09:56:37;;;;;;;12.43;7.68;;;;;;;23.60;57.65;101991.09;4836210;29;124504;-74
2021/08/30 09:59:06;;;;;;;11.50;8.13;;;;;;;23.58;57.90;101990.38;4850394;28;124032;-73
2021/08/30 10:01:38;;;;;;;15.07;7.82;;;;;;;23.59;57.82;101986.69;4848773;28;118856;-74
2021/08/30 10:04:08;;;;;;;12.48;7.68;;;;;;;23.64;57.64;101992.56;4813305;28;118238;-74
2021/08/30 10:06:37;;;;;;;14.00;8.45;;;;;;;23.69;57.73;101990.34;4855757;28;124534;-74
2021/08/30 10:09:11;;;;;;;13.30;7.50;;;;;;;23.74;57.74;101990.84;4854510;28;124476;-74
2021/08/30 10:11:39;;;;;;;15.82;8.70;;;;;;;23.82;57.88;101988.38;4839567;29;120060;-73
2021/08/30 10:14:08;;;;;;;14.10;8.00;;;;;;;23.90;57.37;101985.91;4855416;28;120316;-73
2021/08/30 10:16:36;;;;;;;14.98;7.55;;;;;;;23.95;57.22;101992.78;4854793;28;124127;-73
2021/08/30 10:19:03;;;;;;;14.30;8.15;;;;;;;23.99;57.35;101978.84;4837401;29;122696;-73
2021/08/30 10:21:30;;;;;;;12.82;7.75;;;;;;;24.05;56.87;101982.88;4844299;29;118140;-73
2021/08/30 10:23:58;;;;;;;14.85;7.70;;;;;;;24.09;56.99;101968.09;4863085;28;119624;-73
2021/08/30 10:26:38;;;;;;;11.90;7.28;;;;;;;24.13;56.55;101969.56;4846653;28;123076;-73
2021/08/30 10:29:05;;;;;;;13.75;7.72;;;;;;;24.16;56.44;101976.56;4853782;29;123157;-73
2021/08/30 10:31:32;;;;;;;12.27;7.20;;;;;;;24.17;56.27;101976.44;4847621;28;119181;-73
2021/08/30 10:33:59;;;;;;;10.88;7.07;;;;;;;24.18;56.13;101977.28;4850836;28;118210;-73
2021/08/30 10:36:28;;;;;;;11.10;6.60;;;;;;;24.17;55.75;101976.44;4834152;28;122411;-73
2021/08/30 10:39:08;;;;;;;9.98;6.93;;;;;;;24.15;55.49;101978.41;4842417;28;124002;-73
2021/08/30 10:41:38;;;;;;;11.45;7.10;;;;;;;24.17;56.09;101975.59;4847756;28;120252;-73
2021/08/30 10:44:12;;;;;;;11.88;7.40;;;;;;;24.23;56.33;101981.31;4851018;28;118539;-73
2021/08/30 10:46:47;;;;;;;10.52;6.60;;;;;;;24.32;56.28;101982.41;4837783;28;124177;-74
2021/08/30 10:49:16;;;;;;;11.35;6.78;;;;;;;24.43;56.29;101976.03;4845724;29;123409;-73
2021/08/30 10:51:44;;;;;;;10.52;7.22;;;;;;;24.54;56.02;101978.72;4847828;28;119636;-74
2021/08/30 10:54:14;;;;;;;10.48;6.97;;;;;;;24.62;54.94;101976.22;4857613;28;118087;-73
2021/08/30 10:56:42;;;;;;;9.55;7.25;;;;;;;24.64;55.12;101985.06;4847405;28;124189;-73
2021/08/30 10:59:12;;;;;;;10.63;6.38;;;;;;;24.66;54.97;101980.38;4833251;28;122847;-73
2021/08/30 11:01:51;;;;;;;11.00;7.50;;;;;;;24.72;54.75;101980.84;4838696;29;119481;-73
2021/08/30 11:04:28;;;;;;;11.55;7.13;;;;;;;24.79;54.87;101976.56;4839830;29;120384;-73
2021/08/30 11:06:56;;;;;;;10.18;6.97;;;;;;;24.88;54.81;101975.75;4858729;28;123658;-73
2021/08/30 11:09:23;;;;;;;9.50;6.70;;;;;;;24.96;54.82;101975.97;4857726;28;123856;-72
2021/08/30 11:11:51;;;;;;;9.27;6.50;;;;;;;25.05;54.86;101977.84;4849249;28;118649;-73
2021/08/30 11:14:20;;;;;;;10.02;6.22;;;;;;;25.13;54.61;101969.03;4832954;28;118739;-73
2021/08/30 11:16:55;;;;;;;10.45;6.10;;;;;;;25.17;53.98;101970.47;4848596;28;123784;-72
2021/08/30 11:19:24;;;;;;;12.48;6.47;;;;;;;25.20;53.66;101974.75;4843433;28;123100;-72
2021/08/30 11:21:58;;;;;;;10.98;5.85;;;;;;;25.22;53.51;101972.75;4850499;28;119313;-72
2021/08/30 11:24:25;;;;;;;11.23;6.30;;;;;;;25.21;52.89;101971.06;4848007;28;117952;-72